Aérodrome :
LOGIN :

S'inscrire | Disclaimer

   EN    FR    IT 

 










Légende :    VFR   VFR Marginal   IFR   IFR Intensif   IFR Très Intensif
Visi : 
Plafond : 
>= 8 km
>= 3000ft
5 à 8 km
1000 à 3000 ft
1500m à 5 km
500 à 1000 ft
800 à 1500m
200 à 500 ft
< 800m
< 200 ft
Symboles :   Orages  Brouillard  Fortes neiges  Fortes précipitations  Vent > 20 kt
SIGMETs :   Divers  Orages  Givrage  Turbulence  Onde Orograph.  Cendres Volcan.







- Altitude de l'aérodrome : 2776 ft
- Code IATA : VLL


LEVD - Valladolid

DERNIER METAR :
  • 181830Z 24011KT 9000 -DZ BKN012 OVC025 07/06 Q1018

METARs EXPIRÉS :
  • 181800Z 22013KT 9000 -DZ BKN012 OVC025 07/06 Q1018
  • 181730Z 22016KT 9999 SCT015 OVC020 08/06 Q1017
  • 181700Z 21017KT 9999 SCT015 BKN020 08/06 Q1017
  • 181630Z 21016KT 9000 -RA BKN020 08/06 Q1017
  • 181600Z 21017KT 9999 BKN020 08/05 Q1016

TAF TAF LEVD
Valide du 18 à 18h jusqu'au 19 à 18h UTC


181700Z 1818/1918 20012KT 9999 SCT045 NSC TX10/1915Z TNM03/1906Z
TEMPO 1818/1821 3000 DZRA BR BKN014
PROB40
TEMPO 1823/1906 1200 BCFG BKN003
Pas de NOTAMs connus pour ce terrain.



MET'MAP, la Météo Aéronautique d'un coup d'oeil ! - Copyright ORBIFLY Décembre 2007 - Disclaimer

ORBIFLY MET'MAP TEAM :

Programmation & Développement : Alexandra Zaïnal
Conception & Développement : Baudouin d'Aumeries
Co-Programmation & Développement : Marc-Olivier Méhu
Soutien technique & logistique : Manuel Goepfert

Contact : metmap@orbifly.com




SOURCES & CREDITS :

   NOAA